sensor_id;sensor_type;location;lat;lon;timestamp;temperature;humidity
80367;DHT22;70058;42.660;23.366;2024-03-23T00:53:08;8.20;46.90
80367;DHT22;70058;42.660;23.366;2024-03-23T00:55:34;8.10;48.00
80367;DHT22;70058;42.660;23.366;2024-03-23T00:57:59;8.20;47.10
80367;DHT22;70058;42.660;23.366;2024-03-23T01:00:25;8.10;47.20
80367;DHT22;70058;42.660;23.366;2024-03-23T01:02:51;8.20;47.20
80367;DHT22;70058;42.660;23.366;2024-03-23T01:05:16;8.00;47.50
80367;DHT22;70058;42.660;23.366;2024-03-23T01:07:42;8.00;47.50
80367;DHT22;70058;42.660;23.366;2024-03-23T01:10:08;7.90;47.50
80367;DHT22;70058;42.660;23.366;2024-03-23T01:12:33;7.90;47.70
80367;DHT22;70058;42.660;23.366;2024-03-23T01:14:59;7.80;47.90
80367;DHT22;70058;42.660;23.366;2024-03-23T01:17:25;7.90;47.40
80367;DHT22;70058;42.660;23.366;2024-03-23T01:19:51;7.90;47.00
80367;DHT22;70058;42.660;23.366;2024-03-23T01:22:16;7.80;47.20
80367;DHT22;70058;42.660;23.366;2024-03-23T01:24:42;7.70;47.20
80367;DHT22;70058;42.660;23.366;2024-03-23T01:27:08;7.90;47.10
80367;DHT22;70058;42.660;23.366;2024-03-23T01:29:34;7.80;47.10
80367;DHT22;70058;42.660;23.366;2024-03-23T01:32:00;7.70;47.30
80367;DHT22;70058;42.660;23.366;2024-03-23T01:34:25;7.70;47.40
80367;DHT22;70058;42.660;23.366;2024-03-23T01:36:52;7.70;47.30
80367;DHT22;70058;42.660;23.366;2024-03-23T01:39:17;7.70;47.30
80367;DHT22;70058;42.660;23.366;2024-03-23T01:41:43;7.60;47.70
80367;DHT22;70058;42.660;23.366;2024-03-23T01:44:09;7.70;47.70
80367;DHT22;70058;42.660;23.366;2024-03-23T01:46:37;7.60;48.00
80367;DHT22;70058;42.660;23.366;2024-03-23T01:49:04;7.40;48.20
80367;DHT22;70058;42.660;23.366;2024-03-23T01:51:30;7.40;48.30
80367;DHT22;70058;42.660;23.366;2024-03-23T01:53:56;7.30;48.60
80367;DHT22;70058;42.660;23.366;2024-03-23T01:56:22;7.30;48.70
80367;DHT22;70058;42.660;23.366;2024-03-23T01:58:47;7.20;49.10
80367;DHT22;70058;42.660;23.366;2024-03-23T02:01:13;7.10;49.30
80367;DHT22;70058;42.660;23.366;2024-03-23T02:03:39;7.20;49.20
80367;DHT22;70058;42.660;23.366;2024-03-23T02:06:05;7.20;48.80
80367;DHT22;70058;42.660;23.366;2024-03-23T02:08:32;7.20;49.00
80367;DHT22;70058;42.660;23.366;2024-03-23T02:10:58;7.30;48.90
80367;DHT22;70058;42.660;23.366;2024-03-23T02:13:24;7.20;48.90
80367;DHT22;70058;42.660;23.366;2024-03-23T02:15:50;7.10;49.30
80367;DHT22;70058;42.660;23.366;2024-03-23T02:18:15;7.10;49.40
80367;DHT22;70058;42.660;23.366;2024-03-23T02:20:41;7.10;49.50
80367;DHT22;70058;42.660;23.366;2024-03-23T02:23:14;7.10;49.60
80367;DHT22;70058;42.660;23.366;2024-03-23T02:25:40;7.10;49.50
80367;DHT22;70058;42.660;23.366;2024-03-23T02:28:05;7.00;49.70
80367;DHT22;70058;42.660;23.366;2024-03-23T02:30:31;6.90;50.00
80367;DHT22;70058;42.660;23.366;2024-03-23T02:32:57;7.00;49.80
80367;DHT22;70058;42.660;23.366;2024-03-23T02:35:22;7.00;49.50
80367;DHT22;70058;42.660;23.366;2024-03-23T02:37:48;7.00;49.90
80367;DHT22;70058;42.660;23.366;2024-03-23T02:40:15;6.90;49.90
80367;DHT22;70058;42.660;23.366;2024-03-23T02:42:41;6.80;50.00
80367;DHT22;70058;42.660;23.366;2024-03-23T02:45:06;6.70;50.70
80367;DHT22;70058;42.660;23.366;2024-03-23T02:47:32;6.80;50.40
80367;DHT22;70058;42.660;23.366;2024-03-23T02:49:58;6.70;50.30
80367;DHT22;70058;42.660;23.366;2024-03-23T02:52:24;6.60;50.30
80367;DHT22;70058;42.660;23.366;2024-03-23T02:54:49;6.60;50.50
80367;DHT22;70058;42.660;23.366;2024-03-23T02:57:15;6.60;50.50
80367;DHT22;70058;42.660;23.366;2024-03-23T02:59:41;6.60;50.40
80367;DHT22;70058;42.660;23.366;2024-03-23T03:02:06;6.60;50.70
80367;DHT22;70058;42.660;23.366;2024-03-23T03:04:32;6.60;50.60
80367;DHT22;70058;42.660;23.366;2024-03-23T03:06:58;6.60;50.50
80367;DHT22;70058;42.660;23.366;2024-03-23T03:09:24;6.50;50.50
80367;DHT22;70058;42.660;23.366;2024-03-23T03:11:50;6.60;50.40
80367;DHT22;70058;42.660;23.366;2024-03-23T03:14:16;6.60;50.40
80367;DHT22;70058;42.660;23.366;2024-03-23T03:16:41;6.70;50.20
80367;DHT22;70058;42.660;23.366;2024-03-23T03:19:10;6.60;50.30
80367;DHT22;70058;42.660;23.366;2024-03-23T03:21:36;6.60;50.30
80367;DHT22;70058;42.660;23.366;2024-03-23T03:24:02;6.40;50.40
80367;DHT22;70058;42.660;23.366;2024-03-23T03:26:28;6.40;50.40
80367;DHT22;70058;42.660;23.366;2024-03-23T03:28:54;6.30;50.80
80367;DHT22;70058;42.660;23.366;2024-03-23T03:31:20;6.30;50.90
80367;DHT22;70058;42.660;23.366;2024-03-23T03:33:46;6.20;51.20
80367;DHT22;70058;42.660;23.366;2024-03-23T03:36:11;6.30;51.10
80367;DHT22;70058;42.660;23.366;2024-03-23T03:38:37;6.30;51.00
80367;DHT22;70058;42.660;23.366;2024-03-23T03:41:04;6.40;50.40
80367;DHT22;70058;42.660;23.366;2024-03-23T03:43:29;6.40;50.40
80367;DHT22;70058;42.660;23.366;2024-03-23T03:45:57;6.40;50.40
80367;DHT22;70058;42.660;23.366;2024-03-23T03:48:22;6.50;50.10
80367;DHT22;70058;42.660;23.366;2024-03-23T03:50:48;6.40;50.40
80367;DHT22;70058;42.660;23.366;2024-03-23T03:53:14;6.40;50.50
80367;DHT22;70058;42.660;23.366;2024-03-23T03:55:40;6.40;50.50
80367;DHT22;70058;42.660;23.366;2024-03-23T03:58:06;6.40;50.60
80367;DHT22;70058;42.660;23.366;2024-03-23T04:00:31;6.40;50.30
80367;DHT22;70058;42.660;23.366;2024-03-23T04:02:57;6.40;50.30
80367;DHT22;70058;42.660;23.366;2024-03-23T04:05:23;6.40;50.70
80367;DHT22;70058;42.660;23.366;2024-03-23T04:07:49;6.30;50.80
80367;DHT22;70058;42.660;23.366;2024-03-23T04:10:15;6.40;50.50
80367;DHT22;70058;42.660;23.366;2024-03-23T04:12:41;6.50;50.30
80367;DHT22;70058;42.660;23.366;2024-03-23T04:15:07;6.50;49.90
80367;DHT22;70058;42.660;23.366;2024-03-23T04:17:33;6.60;49.50
80367;DHT22;70058;42.660;23.366;2024-03-23T04:20:00;6.50;49.80
80367;DHT22;70058;42.660;23.366;2024-03-23T04:22:26;6.50;49.90
80367;DHT22;70058;42.660;23.366;2024-03-23T04:24:56;6.50;49.80
80367;DHT22;70058;42.660;23.366;2024-03-23T04:27:25;6.50;49.70
80367;DHT22;70058;42.660;23.366;2024-03-23T04:29:51;6.50;50.10
80367;DHT22;70058;42.660;23.366;2024-03-23T04:32:17;6.40;50.10
80367;DHT22;70058;42.660;23.366;2024-03-23T04:34:43;6.50;50.20
80367;DHT22;70058;42.660;23.366;2024-03-23T04:37:09;6.60;49.90
80367;DHT22;70058;42.660;23.366;2024-03-23T04:39:38;6.60;49.70
80367;DHT22;70058;42.660;23.366;2024-03-23T04:42:04;6.70;49.70
80367;DHT22;70058;42.660;23.366;2024-03-23T04:44:30;6.70;49.40
80367;DHT22;70058;42.660;23.366;2024-03-23T04:46:57;6.80;49.20
80367;DHT22;70058;42.660;23.366;2024-03-23T04:49:23;6.80;49.30
80367;DHT22;70058;42.660;23.366;2024-03-23T04:51:48;6.90;49.00
80367;DHT22;70058;42.660;23.366;2024-03-23T04:54:14;7.00;48.60
80367;DHT22;70058;42.660;23.366;2024-03-23T04:56:40;7.00;48.60
80367;DHT22;70058;42.660;23.366;2024-03-23T04:59:06;6.90;48.90
80367;DHT22;70058;42.660;23.366;2024-03-23T05:01:32;6.90;48.80
80367;DHT22;70058;42.660;23.366;2024-03-23T05:03:58;6.90;48.80
80367;DHT22;70058;42.660;23.366;2024-03-23T05:06:25;7.00;48.50
80367;DHT22;70058;42.660;23.366;2024-03-23T05:08:54;7.00;48.40
80367;DHT22;70058;42.660;23.366;2024-03-23T05:11:19;7.20;48.10
80367;DHT22;70058;42.660;23.366;2024-03-23T05:13:46;7.30;47.60
80367;DHT22;70058;42.660;23.366;2024-03-23T05:16:12;7.40;47.60
80367;DHT22;70058;42.660;23.366;2024-03-23T05:18:37;7.50;47.30
80367;DHT22;70058;42.660;23.366;2024-03-23T05:21:03;7.60;46.60
80367;DHT22;70058;42.660;23.366;2024-03-23T05:23:29;7.70;46.50
80367;DHT22;70058;42.660;23.366;2024-03-23T05:25:55;7.70;46.40
80367;DHT22;70058;42.660;23.366;2024-03-23T05:28:22;7.70;46.50
80367;DHT22;70058;42.660;23.366;2024-03-23T05:30:54;7.70;46.50
80367;DHT22;70058;42.660;23.366;2024-03-23T05:33:20;7.70;46.50
80367;DHT22;70058;42.660;23.366;2024-03-23T05:35:46;7.80;46.30
80367;DHT22;70058;42.660;23.366;2024-03-23T05:38:13;7.80;46.30
80367;DHT22;70058;42.660;23.366;2024-03-23T05:40:39;8.00;45.90
80367;DHT22;70058;42.660;23.366;2024-03-23T05:43:06;8.50;45.10
80367;DHT22;70058;42.660;23.366;2024-03-23T05:45:32;9.20;43.50
80367;DHT22;70058;42.660;23.366;2024-03-23T05:47:58;10.50;41.40
80367;DHT22;70058;42.660;23.366;2024-03-23T05:50:24;11.70;38.80
80367;DHT22;70058;42.660;23.366;2024-03-23T05:52:50;12.90;36.10
80367;DHT22;70058;42.660;23.366;2024-03-23T05:55:16;13.70;34.10
80367;DHT22;70058;42.660;23.366;2024-03-23T05:57:41;14.00;33.40
80367;DHT22;70058;42.660;23.366;2024-03-23T06:00:08;14.10;33.10
80367;DHT22;70058;42.660;23.366;2024-03-23T06:02:44;14.30;32.80
80367;DHT22;70058;42.660;23.366;2024-03-23T06:05:13;14.60;32.00
80367;DHT22;70058;42.660;23.366;2024-03-23T06:07:39;14.30;32.10
80367;DHT22;70058;42.660;23.366;2024-03-23T06:10:05;14.20;32.30
80367;DHT22;70058;42.660;23.366;2024-03-23T06:12:31;14.20;32.20
80367;DHT22;70058;42.660;23.366;2024-03-23T06:14:57;14.20;32.20
80367;DHT22;70058;42.660;23.366;2024-03-23T06:17:23;14.00;32.50
80367;DHT22;70058;42.660;23.366;2024-03-23T06:19:49;14.00;32.50
80367;DHT22;70058;42.660;23.366;2024-03-23T06:22:15;14.00;32.70
80367;DHT22;70058;42.660;23.366;2024-03-23T06:24:41;14.20;32.40
80367;DHT22;70058;42.660;23.366;2024-03-23T06:27:06;15.00;31.40
80367;DHT22;70058;42.660;23.366;2024-03-23T06:29:32;15.70;30.40
80367;DHT22;70058;42.660;23.366;2024-03-23T06:31:58;16.70;29.10
80367;DHT22;70058;42.660;23.366;2024-03-23T06:34:24;17.80;27.70
80367;DHT22;70058;42.660;23.366;2024-03-23T06:36:50;17.80;27.40
80367;DHT22;70058;42.660;23.366;2024-03-23T06:39:16;17.00;28.00
80367;DHT22;70058;42.660;23.366;2024-03-23T06:41:42;16.00;28.90
80367;DHT22;70058;42.660;23.366;2024-03-23T06:44:08;15.20;29.90
80367;DHT22;70058;42.660;23.366;2024-03-23T06:46:34;14.60;30.60
80367;DHT22;70058;42.660;23.366;2024-03-23T06:49:00;14.10;31.60
80367;DHT22;70058;42.660;23.366;2024-03-23T06:51:25;14.20;31.70
80367;DHT22;70058;42.660;23.366;2024-03-23T06:53:51;16.00;29.90
80367;DHT22;70058;42.660;23.366;2024-03-23T06:56:16;18.60;27.00
80367;DHT22;70058;42.660;23.366;2024-03-23T06:58:42;21.20;24.60
80367;DHT22;70058;42.660;23.366;2024-03-23T07:01:08;23.40;22.40
80367;DHT22;70058;42.660;23.366;2024-03-23T07:03:33;25.30;20.90
80367;DHT22;70058;42.660;23.366;2024-03-23T07:06:00;25.70;19.90
80367;DHT22;70058;42.660;23.366;2024-03-23T07:08:26;27.20;19.30
80367;DHT22;70058;42.660;23.366;2024-03-23T07:10:51;27.70;18.40
80367;DHT22;70058;42.660;23.366;2024-03-23T07:13:17;28.50;18.20
80367;DHT22;70058;42.660;23.366;2024-03-23T07:15:43;29.70;17.60
80367;DHT22;70058;42.660;23.366;2024-03-23T07:18:08;30.70;17.10
80367;DHT22;70058;42.660;23.366;2024-03-23T07:20:34;31.30;16.90
80367;DHT22;70058;42.660;23.366;2024-03-23T07:23:00;31.50;16.20
80367;DHT22;70058;42.660;23.366;2024-03-23T07:25:26;31.20;16.20
80367;DHT22;70058;42.660;23.366;2024-03-23T07:27:53;32.30;16.30
80367;DHT22;70058;42.660;23.366;2024-03-23T07:30:19;33.00;15.90
80367;DHT22;70058;42.660;23.366;2024-03-23T07:32:45;33.30;15.30
80367;DHT22;70058;42.660;23.366;2024-03-23T07:35:11;32.60;15.70
80367;DHT22;70058;42.660;23.366;2024-03-23T07:37:36;33.20;15.60
80367;DHT22;70058;42.660;23.366;2024-03-23T07:40:02;33.80;15.10
80367;DHT22;70058;42.660;23.366;2024-03-23T07:42:28;34.20;14.90
80367;DHT22;70058;42.660;23.366;2024-03-23T07:44:54;34.80;14.70
80367;DHT22;70058;42.660;23.366;2024-03-23T07:47:22;35.30;14.60
80367;DHT22;70058;42.660;23.366;2024-03-23T07:49:48;35.70;14.40
80367;DHT22;70058;42.660;23.366;2024-03-23T07:52:14;36.10;14.00
80367;DHT22;70058;42.660;23.366;2024-03-23T07:54:39;36.00;13.80
80367;DHT22;70058;42.660;23.366;2024-03-23T07:57:05;35.60;14.10
80367;DHT22;70058;42.660;23.366;2024-03-23T07:59:32;35.50;14.00
80367;DHT22;70058;42.660;23.366;2024-03-23T08:01:59;35.70;13.90
80367;DHT22;70058;42.660;23.366;2024-03-23T08:04:27;35.70;14.00
80367;DHT22;70058;42.660;23.366;2024-03-23T08:06:53;35.70;13.90
80367;DHT22;70058;42.660;23.366;2024-03-23T08:09:19;36.10;13.70
80367;DHT22;70058;42.660;23.366;2024-03-23T08:11:44;36.90;13.40
80367;DHT22;70058;42.660;23.366;2024-03-23T08:14:12;35.30;13.20
80367;DHT22;70058;42.660;23.366;2024-03-23T08:16:38;31.10;15.30
80367;DHT22;70058;42.660;23.366;2024-03-23T08:19:04;31.80;15.00
80367;DHT22;70058;42.660;23.366;2024-03-23T08:21:30;32.80;14.90
80367;DHT22;70058;42.660;23.366;2024-03-23T08:23:56;34.40;14.40
80367;DHT22;70058;42.660;23.366;2024-03-23T08:26:21;35.40;14.10
80367;DHT22;70058;42.660;23.366;2024-03-23T08:28:47;36.00;13.80
80367;DHT22;70058;42.660;23.366;2024-03-23T08:31:13;35.10;13.60
80367;DHT22;70058;42.660;23.366;2024-03-23T08:33:40;36.20;13.60
80367;DHT22;70058;42.660;23.366;2024-03-23T08:36:09;37.20;13.30
80367;DHT22;70058;42.660;23.366;2024-03-23T08:38:38;37.80;13.20
80367;DHT22;70058;42.660;23.366;2024-03-23T08:41:08;38.00;12.90
80367;DHT22;70058;42.660;23.366;2024-03-23T08:43:41;38.40;13.60
80367;DHT22;70058;42.660;23.366;2024-03-23T08:46:15;37.70;12.70
80367;DHT22;70058;42.660;23.366;2024-03-23T08:48:43;38.20;12.80
80367;DHT22;70058;42.660;23.366;2024-03-23T08:51:10;38.80;12.60
80367;DHT22;70058;42.660;23.366;2024-03-23T08:53:36;38.70;12.40
80367;DHT22;70058;42.660;23.366;2024-03-23T08:56:03;37.20;12.50
80367;DHT22;70058;42.660;23.366;2024-03-23T08:58:30;38.10;12.60
80367;DHT22;70058;42.660;23.366;2024-03-23T09:01:02;38.60;12.50
80367;DHT22;70058;42.660;23.366;2024-03-23T09:03:28;38.90;12.50
80367;DHT22;70058;42.660;23.366;2024-03-23T09:05:54;38.90;12.40
80367;DHT22;70058;42.660;23.366;2024-03-23T09:08:21;38.80;13.10
80367;DHT22;70058;42.660;23.366;2024-03-23T09:10:47;39.40;12.40
80367;DHT22;70058;42.660;23.366;2024-03-23T09:13:13;39.70;12.30
80367;DHT22;70058;42.660;23.366;2024-03-23T09:15:50;40.00;12.10
80367;DHT22;70058;42.660;23.366;2024-03-23T09:18:16;40.80;12.00
80367;DHT22;70058;42.660;23.366;2024-03-23T09:20:42;41.40;11.80
80367;DHT22;70058;42.660;23.366;2024-03-23T09:23:08;41.50;11.40
80367;DHT22;70058;42.660;23.366;2024-03-23T09:25:37;41.40;11.30
80367;DHT22;70058;42.660;23.366;2024-03-23T09:28:04;41.60;11.30
80367;DHT22;70058;42.660;23.366;2024-03-23T09:30:30;41.70;11.20
80367;DHT22;70058;42.660;23.366;2024-03-23T09:32:57;41.50;11.40
80367;DHT22;70058;42.660;23.366;2024-03-23T09:35:22;41.20;11.40
80367;DHT22;70058;42.660;23.366;2024-03-23T09:37:48;40.80;11.40
80367;DHT22;70058;42.660;23.366;2024-03-23T09:40:14;41.20;11.50
80367;DHT22;70058;42.660;23.366;2024-03-23T09:42:40;41.60;11.40
80367;DHT22;70058;42.660;23.366;2024-03-23T09:45:17;40.60;11.10
80367;DHT22;70058;42.660;23.366;2024-03-23T09:47:43;41.30;11.40
80367;DHT22;70058;42.660;23.366;2024-03-23T09:50:09;41.80;11.10
80367;DHT22;70058;42.660;23.366;2024-03-23T09:52:35;42.40;11.00
80367;DHT22;70058;42.660;23.366;2024-03-23T09:55:01;42.80;10.80
80367;DHT22;70058;42.660;23.366;2024-03-23T09:57:26;42.90;10.40
80367;DHT22;70058;42.660;23.366;2024-03-23T09:59:52;42.60;10.60
80367;DHT22;70058;42.660;23.366;2024-03-23T10:02:20;42.70;10.50
80367;DHT22;70058;42.660;23.366;2024-03-23T10:04:46;41.80;10.80
80367;DHT22;70058;42.660;23.366;2024-03-23T10:07:13;41.50;11.10
80367;DHT22;70058;42.660;23.366;2024-03-23T10:09:39;41.50;11.10
80367;DHT22;70058;42.660;23.366;2024-03-23T10:14:35;41.10;11.30
80367;DHT22;70058;42.660;23.366;2024-03-23T10:17:22;40.50;11.20
80367;DHT22;70058;42.660;23.366;2024-03-23T10:19:56;39.50;11.40
80367;DHT22;70058;42.660;23.366;2024-03-23T10:22:45;38.70;11.90
80367;DHT22;70058;42.660;23.366;2024-03-23T10:25:11;38.20;12.20
80367;DHT22;70058;42.660;23.366;2024-03-23T10:27:37;37.80;12.10
80367;DHT22;70058;42.660;23.366;2024-03-23T10:30:13;37.80;12.40
80367;DHT22;70058;42.660;23.366;2024-03-23T10:32:42;37.20;12.70
80367;DHT22;70058;42.660;23.366;2024-03-23T10:37:44;35.80;13.50
80367;DHT22;70058;42.660;23.366;2024-03-23T10:40:11;34.60;14.00
80367;DHT22;70058;42.660;23.366;2024-03-23T10:42:38;33.60;14.60
80367;DHT22;70058;42.660;23.366;2024-03-23T10:45:06;32.30;15.00
80367;DHT22;70058;42.660;23.366;2024-03-23T10:47:34;31.30;15.40
80367;DHT22;70058;42.660;23.366;2024-03-23T10:49:59;30.20;15.70
80367;DHT22;70058;42.660;23.366;2024-03-23T10:52:25;28.70;16.40
80367;DHT22;70058;42.660;23.366;2024-03-23T10:54:51;25.40;17.90
80367;DHT22;70058;42.660;23.366;2024-03-23T10:57:21;25.20;18.70
80367;DHT22;70058;42.660;23.366;2024-03-23T10:59:49;24.60;19.10
80367;DHT22;70058;42.660;23.366;2024-03-23T11:02:21;23.80;19.70
80367;DHT22;70058;42.660;23.366;2024-03-23T11:04:47;23.50;20.30
80367;DHT22;70058;42.660;23.366;2024-03-23T11:07:30;22.90;20.30
80367;DHT22;70058;42.660;23.366;2024-03-23T11:09:57;22.40;20.80
80367;DHT22;70058;42.660;23.366;2024-03-23T11:14:49;21.30;21.80
80367;DHT22;70058;42.660;23.366;2024-03-23T11:17:20;21.20;22.00
80367;DHT22;70058;42.660;23.366;2024-03-23T11:20:03;21.20;22.00
80367;DHT22;70058;42.660;23.366;2024-03-23T11:25:18;20.60;22.70
80367;DHT22;70058;42.660;23.366;2024-03-23T11:27:46;20.20;22.60
80367;DHT22;70058;42.660;23.366;2024-03-23T11:32:55;20.10;23.20
80367;DHT22;70058;42.660;23.366;2024-03-23T11:35:38;20.10;23.10
80367;DHT22;70058;42.660;23.366;2024-03-23T11:38:10;20.10;23.40
80367;DHT22;70058;42.660;23.366;2024-03-23T11:40:39;20.20;23.70
80367;DHT22;70058;42.660;23.366;2024-03-23T11:43:10;20.20;23.40
80367;DHT22;70058;42.660;23.366;2024-03-23T11:48:18;20.10;22.90
80367;DHT22;70058;42.660;23.366;2024-03-23T11:50:46;20.10;23.20
80367;DHT22;70058;42.660;23.366;2024-03-23T11:55:45;20.10;23.40
80367;DHT22;70058;42.660;23.366;2024-03-23T11:58:11;20.20;23.20
80367;DHT22;70058;42.660;23.366;2024-03-23T12:00:37;20.30;22.90
80367;DHT22;70058;42.660;23.366;2024-03-23T12:03:03;20.20;22.90
80367;DHT22;70058;42.660;23.366;2024-03-23T12:05:30;20.10;23.10
80367;DHT22;70058;42.660;23.366;2024-03-23T12:08:36;20.20;23.00
80367;DHT22;70058;42.660;23.366;2024-03-23T12:11:14;20.10;23.00
80367;DHT22;70058;42.660;23.366;2024-03-23T12:13:41;20.20;23.10
80367;DHT22;70058;42.660;23.366;2024-03-23T12:16:16;19.80;23.10
80367;DHT22;70058;42.660;23.366;2024-03-23T12:18:44;19.50;23.70
80367;DHT22;70058;42.660;23.366;2024-03-23T12:21:11;19.50;23.70
80367;DHT22;70058;42.660;23.366;2024-03-23T12:23:39;19.40;23.50
80367;DHT22;70058;42.660;23.366;2024-03-23T12:26:05;19.40;23.50
80367;DHT22;70058;42.660;23.366;2024-03-23T12:28:32;19.40;23.20
80367;DHT22;70058;42.660;23.366;2024-03-23T12:30:58;19.60;22.90
80367;DHT22;70058;42.660;23.366;2024-03-23T12:33:24;19.50;22.60
80367;DHT22;70058;42.660;23.366;2024-03-23T12:35:52;19.50;23.40
80367;DHT22;70058;42.660;23.366;2024-03-23T12:38:19;19.60;23.10
80367;DHT22;70058;42.660;23.366;2024-03-23T12:40:51;19.60;23.00
80367;DHT22;70058;42.660;23.366;2024-03-23T12:43:18;19.60;23.10
80367;DHT22;70058;42.660;23.366;2024-03-23T12:45:47;19.60;23.20
80367;DHT22;70058;42.660;23.366;2024-03-23T12:48:13;19.60;22.90
80367;DHT22;70058;42.660;23.366;2024-03-23T12:50:39;19.60;23.00
80367;DHT22;70058;42.660;23.366;2024-03-23T12:53:05;19.70;22.80
80367;DHT22;70058;42.660;23.366;2024-03-23T12:55:30;19.70;22.90
80367;DHT22;70058;42.660;23.366;2024-03-23T12:57:56;19.80;22.20
80367;DHT22;70058;42.660;23.366;2024-03-23T13:00:22;19.90;21.60
80367;DHT22;70058;42.660;23.366;2024-03-23T13:02:47;19.90;20.80
80367;DHT22;70058;42.660;23.366;2024-03-23T13:05:13;20.10;19.80
80367;DHT22;70058;42.660;23.366;2024-03-23T13:07:39;19.90;19.70
80367;DHT22;70058;42.660;23.366;2024-03-23T13:10:06;20.00;19.70
80367;DHT22;70058;42.660;23.366;2024-03-23T13:12:32;20.00;19.60
80367;DHT22;70058;42.660;23.366;2024-03-23T13:15:01;20.10;20.10
80367;DHT22;70058;42.660;23.366;2024-03-23T13:17:27;20.10;18.90
80367;DHT22;70058;42.660;23.366;2024-03-23T13:19:53;20.10;19.10
80367;DHT22;70058;42.660;23.366;2024-03-23T13:22:19;20.10;19.30
80367;DHT22;70058;42.660;23.366;2024-03-23T13:24:45;20.00;19.30
80367;DHT22;70058;42.660;23.366;2024-03-23T13:27:11;20.00;19.20
80367;DHT22;70058;42.660;23.366;2024-03-23T13:29:36;20.10;19.10
80367;DHT22;70058;42.660;23.366;2024-03-23T13:32:03;20.00;19.10
80367;DHT22;70058;42.660;23.366;2024-03-23T13:34:29;20.10;19.30
80367;DHT22;70058;42.660;23.366;2024-03-23T13:36:55;20.10;19.10
80367;DHT22;70058;42.660;23.366;2024-03-23T13:39:23;20.10;19.30
80367;DHT22;70058;42.660;23.366;2024-03-23T13:41:49;20.10;19.60
80367;DHT22;70058;42.660;23.366;2024-03-23T13:44:15;19.80;19.30
80367;DHT22;70058;42.660;23.366;2024-03-23T13:46:42;19.40;19.40
80367;DHT22;70058;42.660;23.366;2024-03-23T13:49:28;19.50;19.70
80367;DHT22;70058;42.660;23.366;2024-03-23T13:51:55;19.30;19.60
80367;DHT22;70058;42.660;23.366;2024-03-23T13:54:21;19.60;19.70
80367;DHT22;70058;42.660;23.366;2024-03-23T13:56:51;19.40;20.10
80367;DHT22;70058;42.660;23.366;2024-03-23T13:59:17;19.60;20.30
80367;DHT22;70058;42.660;23.366;2024-03-23T14:01:46;19.70;20.40
80367;DHT22;70058;42.660;23.366;2024-03-23T14:04:12;19.70;20.30
80367;DHT22;70058;42.660;23.366;2024-03-23T14:06:38;19.90;19.80
80367;DHT22;70058;42.660;23.366;2024-03-23T14:09:05;19.90;19.90
80367;DHT22;70058;42.660;23.366;2024-03-23T14:11:35;19.70;19.40
80367;DHT22;70058;42.660;23.366;2024-03-23T14:14:01;18.80;20.20
80367;DHT22;70058;42.660;23.366;2024-03-23T14:16:29;18.90;20.50
80367;DHT22;70058;42.660;23.366;2024-03-23T14:18:55;19.10;20.70
80367;DHT22;70058;42.660;23.366;2024-03-23T14:21:20;19.30;21.10
80367;DHT22;70058;42.660;23.366;2024-03-23T14:23:46;19.60;20.90
80367;DHT22;70058;42.660;23.366;2024-03-23T14:26:12;19.70;20.70
80367;DHT22;70058;42.660;23.366;2024-03-23T14:28:37;19.70;20.40
80367;DHT22;70058;42.660;23.366;2024-03-23T14:31:03;19.80;20.40
80367;DHT22;70058;42.660;23.366;2024-03-23T14:33:38;19.80;20.40
80367;DHT22;70058;42.660;23.366;2024-03-23T14:36:07;19.80;20.50
80367;DHT22;70058;42.660;23.366;2024-03-23T14:38:33;19.80;20.50
80367;DHT22;70058;42.660;23.366;2024-03-23T14:41:00;19.80;20.70
80367;DHT22;70058;42.660;23.366;2024-03-23T14:43:26;19.70;20.60
80367;DHT22;70058;42.660;23.366;2024-03-23T14:46:11;19.70;20.70
80367;DHT22;70058;42.660;23.366;2024-03-23T14:48:38;19.70;20.40
80367;DHT22;70058;42.660;23.366;2024-03-23T14:51:05;19.60;20.50
80367;DHT22;70058;42.660;23.366;2024-03-23T14:53:32;19.70;20.70
80367;DHT22;70058;42.660;23.366;2024-03-23T14:55:59;19.60;21.10
80367;DHT22;70058;42.660;23.366;2024-03-23T14:58:26;19.70;21.40
80367;DHT22;70058;42.660;23.366;2024-03-23T15:00:52;19.70;21.50
80367;DHT22;70058;42.660;23.366;2024-03-23T15:03:18;19.80;21.30
80367;DHT22;70058;42.660;23.366;2024-03-23T15:05:57;19.70;21.40
80367;DHT22;70058;42.660;23.366;2024-03-23T15:08:24;19.70;21.40
80367;DHT22;70058;42.660;23.366;2024-03-23T15:10:49;19.50;21.60
80367;DHT22;70058;42.660;23.366;2024-03-23T15:13:15;19.50;21.70
80367;DHT22;70058;42.660;23.366;2024-03-23T15:15:42;19.50;21.70
80367;DHT22;70058;42.660;23.366;2024-03-23T15:18:15;19.40;21.80
80367;DHT22;70058;42.660;23.366;2024-03-23T15:20:54;19.30;21.90
80367;DHT22;70058;42.660;23.366;2024-03-23T15:23:20;19.20;22.10
80367;DHT22;70058;42.660;23.366;2024-03-23T15:25:56;19.20;22.10
80367;DHT22;70058;42.660;23.366;2024-03-23T15:28:26;19.20;22.10
80367;DHT22;70058;42.660;23.366;2024-03-23T15:31:05;19.00;22.40
80367;DHT22;70058;42.660;23.366;2024-03-23T15:33:30;18.90;22.70
80367;DHT22;70058;42.660;23.366;2024-03-23T15:36:00;18.80;22.70
80367;DHT22;70058;42.660;23.366;2024-03-23T15:38:25;18.80;22.70
80367;DHT22;70058;42.660;23.366;2024-03-23T15:40:52;18.80;22.70
80367;DHT22;70058;42.660;23.366;2024-03-23T15:43:18;18.80;22.50
80367;DHT22;70058;42.660;23.366;2024-03-23T15:45:44;18.80;22.60
80367;DHT22;70058;42.660;23.366;2024-03-23T15:48:09;18.70;22.80
80367;DHT22;70058;42.660;23.366;2024-03-23T15:50:36;18.60;22.60
80367;DHT22;70058;42.660;23.366;2024-03-23T15:53:01;18.60;22.70
80367;DHT22;70058;42.660;23.366;2024-03-23T15:55:28;18.50;22.80
80367;DHT22;70058;42.660;23.366;2024-03-23T15:57:54;18.50;22.90
80367;DHT22;70058;42.660;23.366;2024-03-23T16:00:19;18.50;23.10
80367;DHT22;70058;42.660;23.366;2024-03-23T16:02:45;18.40;23.20
80367;DHT22;70058;42.660;23.366;2024-03-23T16:05:12;18.30;23.30
80367;DHT22;70058;42.660;23.366;2024-03-23T16:07:39;18.40;23.50
80367;DHT22;70058;42.660;23.366;2024-03-23T16:10:05;18.10;23.50
80367;DHT22;70058;42.660;23.366;2024-03-23T16:12:34;18.10;23.80
80367;DHT22;70058;42.660;23.366;2024-03-23T16:15:00;18.10;23.70
80367;DHT22;70058;42.660;23.366;2024-03-23T16:17:25;17.90;23.60
80367;DHT22;70058;42.660;23.366;2024-03-23T16:19:51;17.90;23.80
80367;DHT22;70058;42.660;23.366;2024-03-23T16:22:17;17.90;24.10
80367;DHT22;70058;42.660;23.366;2024-03-23T16:24:44;17.80;24.20
80367;DHT22;70058;42.660;23.366;2024-03-23T16:27:10;17.60;23.90
80367;DHT22;70058;42.660;23.366;2024-03-23T16:33:11;17.60;24.00